createdAt,value
2019-06-01T00:01:48.832Z,15.95
2019-06-01T00:04:20.042Z,15.40
2019-06-01T00:06:49.944Z,14.85
2019-06-01T00:09:19.893Z,16.52
2019-06-01T00:11:49.870Z,15.85
2019-06-01T00:14:19.932Z,18.60
2019-06-01T00:16:50.416Z,19.57
2019-06-01T00:19:20.638Z,18.20
2019-06-01T00:21:52.239Z,15.70
2019-06-01T00:24:22.345Z,17.20
2019-06-01T00:26:53.221Z,16.10
2019-06-01T00:29:23.385Z,17.62
2019-06-01T00:31:53.272Z,14.40
2019-06-01T00:34:23.690Z,18.05
2019-06-01T00:36:53.612Z,17.05
2019-06-01T00:39:23.487Z,15.00
2019-06-01T00:41:53.493Z,17.87
2019-06-01T00:44:23.539Z,17.15
2019-06-01T00:46:53.436Z,16.93
2019-06-01T00:49:23.399Z,18.45
2019-06-01T00:51:53.805Z,21.27
2019-06-01T00:54:23.752Z,20.68
2019-06-01T00:56:53.941Z,19.00
2019-06-01T00:59:24.322Z,18.02
2019-06-01T01:01:54.384Z,21.73
2019-06-01T01:04:24.454Z,18.92
2019-06-01T01:06:54.860Z,22.73
2019-06-01T01:09:24.992Z,19.35
2019-06-01T01:11:55.638Z,20.57
2019-06-01T01:14:25.573Z,18.17
2019-06-01T01:16:55.817Z,20.02
2019-06-01T01:19:25.896Z,18.25
2019-06-01T01:21:56.462Z,18.12
2019-06-01T01:24:26.497Z,19.17
2019-06-01T01:26:56.821Z,22.17
2019-06-01T01:29:26.874Z,23.47
2019-06-01T01:31:57.355Z,21.33
2019-06-01T01:34:27.485Z,22.00
2019-06-01T01:36:58.076Z,24.87
2019-06-01T01:39:28.199Z,23.12
2019-06-01T01:41:58.617Z,27.32
2019-06-01T01:44:28.703Z,27.73
2019-06-01T01:46:59.065Z,27.55
2019-06-01T01:49:30.418Z,30.95
2019-06-01T01:52:01.534Z,27.87
2019-06-01T01:54:32.719Z,24.27
2019-06-01T01:57:02.898Z,26.42
2019-06-01T01:59:32.883Z,28.32
2019-06-01T02:02:03.016Z,24.90
2019-06-01T02:04:32.889Z,29.07
2019-06-01T02:07:03.210Z,28.47
2019-06-01T02:09:33.199Z,26.68
2019-06-01T02:12:03.243Z,26.93
2019-06-01T02:14:33.576Z,26.60
2019-06-01T02:17:04.698Z,26.57
2019-06-01T02:19:36.493Z,29.60
2019-06-01T02:22:06.610Z,28.02
2019-06-01T02:24:36.632Z,26.02
2019-06-01T02:27:06.619Z,25.95
2019-06-01T02:29:37.115Z,26.62
2019-06-01T02:32:07.068Z,28.23
2019-06-01T02:34:38.374Z,26.75
2019-06-01T02:37:08.251Z,31.70
2019-06-01T02:39:38.524Z,27.60
2019-06-01T02:42:09.977Z,25.85
2019-06-01T02:44:39.935Z,26.95
2019-06-01T02:47:09.909Z,25.60
2019-06-01T02:49:40.332Z,28.87
2019-06-01T02:52:10.762Z,28.83
2019-06-01T02:54:41.014Z,25.88
2019-06-01T02:57:10.970Z,28.87
2019-06-01T02:59:40.862Z,28.73
2019-06-01T03:02:14.346Z,28.90
2019-06-01T03:04:43.330Z,27.40
2019-06-01T03:07:14.487Z,30.43
2019-06-01T03:09:45.797Z,25.27
2019-06-01T03:12:18.757Z,26.35
2019-06-01T03:14:51.283Z,28.23
2019-06-01T03:17:24.288Z,27.32
2019-06-01T03:19:57.490Z,28.73
2019-06-01T03:22:28.718Z,30.50
2019-06-01T03:25:00.463Z,29.25
2019-06-01T03:27:32.695Z,28.17
2019-06-01T03:30:08.921Z,27.02
2019-06-01T03:32:37.828Z,26.60
2019-06-01T03:35:08.843Z,26.90
2019-06-01T03:37:39.338Z,27.73
2019-06-01T03:40:15.686Z,30.02
2019-06-01T03:42:41.338Z,29.12
2019-06-01T03:45:12.710Z,28.12
2019-06-01T03:47:44.231Z,27.23
2019-06-01T03:50:14.409Z,26.42
2019-06-01T03:52:44.466Z,28.52
2019-06-01T03:55:14.415Z,29.23
2019-06-01T03:57:44.561Z,28.70
2019-06-01T04:00:14.533Z,27.90
2019-06-01T04:02:44.552Z,29.65
2019-06-01T04:05:14.597Z,29.27
2019-06-01T04:07:44.552Z,26.82
2019-06-01T04:10:14.605Z,24.20
2019-06-01T04:12:44.669Z,26.62
2019-06-01T04:15:16.802Z,28.10
2019-06-01T04:17:46.754Z,27.52
2019-06-01T04:20:16.866Z,30.10
2019-06-01T04:22:46.817Z,32.58
2019-06-01T04:25:16.913Z,29.90
2019-06-01T04:27:46.707Z,28.25
2019-06-01T04:30:16.759Z,28.05
2019-06-01T04:32:50.014Z,30.25
2019-06-01T04:35:18.308Z,27.52
2019-06-01T04:37:48.283Z,26.05
2019-06-01T04:40:18.200Z,26.35
2019-06-01T04:42:48.586Z,23.35
2019-06-01T04:45:18.970Z,28.20
2019-06-01T04:47:49.020Z,28.60
2019-06-01T04:50:19.001Z,24.35
2019-06-01T04:52:49.078Z,23.30
2019-06-01T04:55:19.131Z,24.20
2019-06-01T04:57:49.161Z,22.95
2019-06-01T05:00:27.320Z,26.87
2019-06-01T05:03:04.426Z,23.32
2019-06-01T05:05:22.829Z,25.00
2019-06-01T05:07:52.828Z,24.07
2019-06-01T05:10:22.958Z,24.60
2019-06-01T05:12:52.912Z,25.08
2019-06-01T05:15:22.881Z,22.58
2019-06-01T05:17:52.853Z,24.25
2019-06-01T05:20:22.798Z,22.42
2019-06-01T05:22:53.021Z,24.43
2019-06-01T05:25:22.900Z,25.37
2019-06-01T05:27:52.869Z,24.63
2019-06-01T05:30:22.951Z,27.50
2019-06-01T05:32:52.851Z,22.42
2019-06-01T05:35:22.872Z,24.25
2019-06-01T05:37:52.822Z,27.42
2019-06-01T05:40:23.388Z,28.55
2019-06-01T05:42:53.666Z,26.42
2019-06-01T05:45:23.698Z,23.77
2019-06-01T05:47:53.650Z,25.27
2019-06-01T05:50:23.542Z,22.35
2019-06-01T05:52:53.555Z,23.70
2019-06-01T05:55:23.561Z,20.32
2019-06-01T05:57:53.586Z,22.80
2019-06-01T06:00:45.805Z,27.95
2019-06-01T06:03:20.237Z,22.93
2019-06-01T06:05:47.393Z,20.27
2019-06-01T06:08:18.021Z,23.20
2019-06-01T06:10:48.183Z,18.17
2019-06-01T06:13:19.309Z,20.50
2019-06-01T06:15:49.801Z,22.15
2019-06-01T06:18:19.862Z,19.82
2019-06-01T06:20:49.857Z,18.27
2019-06-01T06:23:20.546Z,16.25
2019-06-01T06:25:50.895Z,16.77
2019-06-01T06:28:20.879Z,19.90
2019-06-01T06:30:50.846Z,13.78
2019-06-01T06:33:21.459Z,14.18
2019-06-01T06:35:51.460Z,14.45
2019-06-01T06:38:21.933Z,13.08
2019-06-01T06:40:51.963Z,13.70
2019-06-01T06:43:29.763Z,12.55
2019-06-01T06:45:53.509Z,14.73
2019-06-01T06:48:23.460Z,14.80
2019-06-01T06:50:53.441Z,13.35
2019-06-01T06:53:32.371Z,13.75
2019-06-01T06:55:55.238Z,13.32
2019-06-01T06:58:25.067Z,14.00
2019-06-01T07:00:56.416Z,13.50
2019-06-01T07:03:27.197Z,13.00
2019-06-01T07:05:58.339Z,12.82
2019-06-01T07:08:28.512Z,12.82
2019-06-01T07:10:58.759Z,13.50
2019-06-01T07:13:29.133Z,15.28
2019-06-01T07:15:59.111Z,12.55
2019-06-01T07:18:29.010Z,11.88
2019-06-01T07:20:59.025Z,13.03
2019-06-01T07:23:29.063Z,13.13
2019-06-01T07:25:58.977Z,12.60
2019-06-01T07:28:28.986Z,13.95
2019-06-01T07:30:59.016Z,14.50
2019-06-01T07:33:28.926Z,11.03
2019-06-01T07:35:58.972Z,13.08
2019-06-01T07:38:29.072Z,11.93
2019-06-01T07:40:59.241Z,13.80
2019-06-01T07:43:30.235Z,10.90
2019-06-01T07:46:00.155Z,11.75
2019-06-01T07:48:30.526Z,13.08
2019-06-01T07:51:00.566Z,10.03
2019-06-01T07:53:31.501Z,9.70
2019-06-01T07:56:02.716Z,10.00
2019-06-01T07:58:33.052Z,11.22
2019-06-01T08:01:04.235Z,11.97
2019-06-01T08:03:35.089Z,11.45
2019-06-01T08:06:05.198Z,10.30
2019-06-01T08:08:35.192Z,9.48
2019-06-01T08:11:05.234Z,10.08
2019-06-01T08:13:35.934Z,13.18
2019-06-01T08:16:06.233Z,12.45
2019-06-01T08:18:36.383Z,12.37
2019-06-01T08:21:06.390Z,10.65
2019-06-01T08:23:36.359Z,11.25
2019-06-01T08:26:07.065Z,10.40
2019-06-01T08:28:37.058Z,10.78
2019-06-01T08:31:07.019Z,9.58
2019-06-01T08:33:36.963Z,9.03
2019-06-01T08:36:06.947Z,9.85
2019-06-01T08:38:37.181Z,11.93
2019-06-01T08:41:07.308Z,11.22
2019-06-01T08:43:37.284Z,10.45
2019-06-01T08:46:07.280Z,13.18
2019-06-01T08:48:37.600Z,12.15
2019-06-01T08:51:07.581Z,11.05
2019-06-01T08:53:37.619Z,8.20
2019-06-01T08:56:07.597Z,8.25
2019-06-01T08:58:37.563Z,10.15
2019-06-01T09:01:07.508Z,8.23
2019-06-01T09:03:45.460Z,7.62
2019-06-01T09:06:09.195Z,7.62
2019-06-01T09:08:39.222Z,9.10
2019-06-01T09:11:09.195Z,8.53
2019-06-01T09:13:39.168Z,7.97
2019-06-01T09:16:09.038Z,6.75
2019-06-01T09:18:39.047Z,6.55
2019-06-01T09:21:08.972Z,7.50
2019-06-01T09:23:38.953Z,6.60
2019-06-01T09:26:08.898Z,6.17
2019-06-01T09:28:38.882Z,7.72
2019-06-01T09:31:08.924Z,6.72
2019-06-01T09:33:38.887Z,6.35
2019-06-01T09:36:08.971Z,7.10
2019-06-01T09:38:38.945Z,8.18
2019-06-01T09:41:09.836Z,6.37
2019-06-01T09:43:39.867Z,9.70
2019-06-01T09:46:09.802Z,6.90
2019-06-01T09:48:39.618Z,6.70
2019-06-01T09:51:09.651Z,7.47
2019-06-01T09:53:39.649Z,7.22
2019-06-01T09:56:09.605Z,6.30
2019-06-01T09:58:39.588Z,7.28
2019-06-01T10:01:09.548Z,6.10
2019-06-01T10:03:39.524Z,5.95
2019-06-01T10:06:09.378Z,7.58
2019-06-01T10:08:39.342Z,5.55
2019-06-01T10:11:09.307Z,6.35
2019-06-01T10:13:39.272Z,5.90
2019-06-01T10:16:09.285Z,8.58
2019-06-01T10:18:39.477Z,7.80
2019-06-01T10:21:09.512Z,6.58
2019-06-01T10:23:39.510Z,7.78
2019-06-01T10:26:09.518Z,7.67
2019-06-01T10:28:39.853Z,6.75
2019-06-01T10:31:09.772Z,6.12
2019-06-01T10:33:39.741Z,7.58
2019-06-01T10:36:19.780Z,7.92
2019-06-01T10:38:41.634Z,8.15
2019-06-01T10:41:11.616Z,8.08
2019-06-01T10:43:41.788Z,6.83
2019-06-01T10:46:11.777Z,5.25
2019-06-01T10:48:42.209Z,4.97
2019-06-01T10:51:12.156Z,7.95
2019-06-01T10:53:43.758Z,6.58
2019-06-01T10:56:13.986Z,6.40
2019-06-01T10:58:59.599Z,5.10
2019-06-01T11:01:15.866Z,6.12
2019-06-01T11:03:47.011Z,8.25
2019-06-01T11:06:17.278Z,5.25
2019-06-01T11:08:47.162Z,5.50
2019-06-01T11:11:17.375Z,5.05
2019-06-01T11:13:47.452Z,5.10
2019-06-01T11:16:17.408Z,5.78
2019-06-01T11:18:47.710Z,5.15
2019-06-01T11:21:18.059Z,5.37
2019-06-01T11:23:48.127Z,4.20
2019-06-01T11:26:18.093Z,5.10
2019-06-01T11:28:48.006Z,4.78
2019-06-01T11:31:18.047Z,5.70
2019-06-01T11:33:48.302Z,6.28
2019-06-01T11:36:18.262Z,5.42
2019-06-01T11:38:48.311Z,5.28
2019-06-01T11:41:18.851Z,6.35
2019-06-01T11:43:49.231Z,6.35
2019-06-01T11:46:19.231Z,7.35
2019-06-01T11:48:49.409Z,6.35
2019-06-01T11:51:19.547Z,6.30
2019-06-01T11:53:49.587Z,5.72
2019-06-01T11:56:19.749Z,6.42
2019-06-01T11:58:49.530Z,6.42
2019-06-01T12:01:19.416Z,6.40
2019-06-01T12:03:49.398Z,6.12
2019-06-01T12:06:19.667Z,6.60
2019-06-01T12:08:50.058Z,6.65
2019-06-01T12:11:20.312Z,5.00
2019-06-01T12:13:50.615Z,5.00
2019-06-01T12:16:20.641Z,4.78
2019-06-01T12:18:50.541Z,6.55
2019-06-01T12:21:20.490Z,6.33
2019-06-01T12:23:50.498Z,5.83
2019-06-01T12:26:20.454Z,5.47
2019-06-01T12:28:50.406Z,7.62
2019-06-01T12:31:20.370Z,4.75
2019-06-01T12:33:50.567Z,4.92
2019-06-01T12:36:20.734Z,6.00
2019-06-01T12:38:53.701Z,5.45
2019-06-01T12:41:24.213Z,5.03
2019-06-01T12:44:13.406Z,4.70
2019-06-01T12:46:43.804Z,6.33
2019-06-01T12:49:13.977Z,4.28
2019-06-01T12:51:44.539Z,4.37
2019-06-01T12:54:14.623Z,4.87
2019-06-01T12:56:44.830Z,4.50
2019-06-01T12:59:14.803Z,5.42
2019-06-01T13:01:45.165Z,5.15
2019-06-01T13:04:15.108Z,4.05
2019-06-01T13:06:48.912Z,4.50
2019-06-01T13:09:16.654Z,3.92
2019-06-01T13:11:47.364Z,5.10
2019-06-01T13:14:17.775Z,4.17
2019-06-01T13:16:58.691Z,3.80
2019-06-01T13:19:19.775Z,4.25
2019-06-01T13:21:50.195Z,4.87
2019-06-01T13:24:20.462Z,3.72
2019-06-01T13:26:50.274Z,5.97
2019-06-01T13:29:20.304Z,4.72
2019-06-01T13:31:50.531Z,5.72
2019-06-01T13:34:20.882Z,4.47
2019-06-01T13:36:50.896Z,5.85
2019-06-01T13:39:20.812Z,4.35
2019-06-01T13:41:51.542Z,4.60
2019-06-01T13:44:21.677Z,4.30
2019-06-01T13:46:51.614Z,4.53
2019-06-01T13:49:22.489Z,3.70
2019-06-01T13:51:54.671Z,3.70
2019-06-01T13:54:25.645Z,4.03
2019-06-01T13:56:55.657Z,4.40
2019-06-01T13:59:25.525Z,3.75
2019-06-01T14:01:55.475Z,3.52
2019-06-01T14:04:25.443Z,4.33
2019-06-01T14:06:55.552Z,4.20
2019-06-01T14:09:25.582Z,4.00
2019-06-01T14:11:55.932Z,3.42
2019-06-01T14:14:25.913Z,3.90
2019-06-01T14:16:55.827Z,3.80
2019-06-01T14:19:25.893Z,3.70
2019-06-01T14:21:56.816Z,3.25
2019-06-01T14:24:26.734Z,3.47
2019-06-01T14:26:57.093Z,3.30
2019-06-01T14:29:26.965Z,4.55
2019-06-01T14:31:57.274Z,5.12
2019-06-01T14:34:27.446Z,5.15
2019-06-01T14:36:57.387Z,3.52
2019-06-01T14:39:27.345Z,4.20
2019-06-01T14:41:57.665Z,3.37
2019-06-01T14:44:27.709Z,3.33
2019-06-01T14:47:02.298Z,2.72
2019-06-01T14:49:29.298Z,3.25
2019-06-01T14:51:59.186Z,2.70
2019-06-01T14:54:29.144Z,3.30
2019-06-01T14:56:59.220Z,3.37
2019-06-01T14:59:29.515Z,3.47
2019-06-01T15:01:59.471Z,3.55
2019-06-01T15:04:30.495Z,3.42
2019-06-01T15:07:00.287Z,3.55
2019-06-01T15:09:30.174Z,3.45
2019-06-01T15:12:00.131Z,3.52
2019-06-01T15:14:30.125Z,3.92
2019-06-01T15:16:59.945Z,3.77
2019-06-01T15:19:30.446Z,4.28
2019-06-01T15:22:00.331Z,3.60
2019-06-01T15:24:30.364Z,3.67
2019-06-01T15:27:00.337Z,3.50
2019-06-01T15:29:30.296Z,3.08
2019-06-01T15:32:00.262Z,3.85
2019-06-01T15:34:30.133Z,3.87
2019-06-01T15:37:00.123Z,3.87
2019-06-01T15:39:30.069Z,3.60
2019-06-01T15:42:01.259Z,3.83
2019-06-01T15:44:31.286Z,4.35
2019-06-01T15:47:02.076Z,4.45
2019-06-01T15:49:32.120Z,4.53
2019-06-01T15:52:02.144Z,3.72
2019-06-01T15:54:32.032Z,5.80
2019-06-01T15:57:02.692Z,4.25
2019-06-01T15:59:32.748Z,4.97
2019-06-01T16:02:03.475Z,4.58
2019-06-01T16:04:33.539Z,3.62
2019-06-01T16:07:03.618Z,5.35
2019-06-01T16:09:42.599Z,6.65
2019-06-01T16:12:05.623Z,5.20
2019-06-01T16:14:35.574Z,4.78
2019-06-01T16:17:05.566Z,5.62
2019-06-01T16:19:35.528Z,5.05
2019-06-01T16:22:05.520Z,5.45
2019-06-01T16:24:35.489Z,4.85
2019-06-01T16:27:05.634Z,4.70
2019-06-01T16:29:35.529Z,4.65
2019-06-01T16:32:05.513Z,5.10
2019-06-01T16:34:35.374Z,5.45
2019-06-01T16:37:05.461Z,4.78
2019-06-01T16:39:35.406Z,4.75
2019-06-01T16:42:06.262Z,4.40
2019-06-01T16:44:37.428Z,4.60
2019-06-01T16:47:07.321Z,5.03
2019-06-01T16:49:37.329Z,4.60
2019-06-01T16:52:07.343Z,4.42
2019-06-01T16:54:37.646Z,5.50
2019-06-01T16:57:07.686Z,6.08
2019-06-01T16:59:37.672Z,4.58
2019-06-01T17:02:08.002Z,4.20
2019-06-01T17:04:38.466Z,4.42
2019-06-01T17:07:08.877Z,6.08
2019-06-01T17:09:40.256Z,4.37
2019-06-01T17:12:10.138Z,4.00
2019-06-01T17:14:40.102Z,4.12
2019-06-01T17:17:10.484Z,4.20
2019-06-01T17:19:40.431Z,4.42
2019-06-01T17:22:10.611Z,5.20
2019-06-01T17:24:40.585Z,4.08
2019-06-01T17:27:10.515Z,3.92
2019-06-01T17:29:40.399Z,4.00
2019-06-01T17:32:23.569Z,3.52
2019-06-01T17:34:42.052Z,3.67
2019-06-01T17:37:12.083Z,4.22
2019-06-01T17:39:42.072Z,3.98
2019-06-01T17:42:12.708Z,3.95
2019-06-01T17:44:42.894Z,3.75
2019-06-01T17:47:12.957Z,4.67
2019-06-01T17:49:43.194Z,3.10
2019-06-01T17:52:13.155Z,4.60
2019-06-01T17:54:44.220Z,3.98
2019-06-01T17:57:14.390Z,5.85
2019-06-01T17:59:44.556Z,3.98
2019-06-01T18:02:14.526Z,4.40
2019-06-01T18:04:44.795Z,5.20
2019-06-01T18:07:14.758Z,4.50
2019-06-01T18:09:44.971Z,4.87
2019-06-01T18:12:15.048Z,4.25
2019-06-01T18:14:45.003Z,4.95
2019-06-01T18:17:14.900Z,4.67
2019-06-01T18:19:44.933Z,4.10
2019-06-01T18:22:15.266Z,5.08
2019-06-01T18:24:45.236Z,4.85
2019-06-01T18:27:15.199Z,5.10
2019-06-01T18:29:48.730Z,6.60
2019-06-01T18:32:16.846Z,5.50
2019-06-01T18:34:46.788Z,4.87
2019-06-01T18:37:16.666Z,5.58
2019-06-01T18:39:48.080Z,4.15
2019-06-01T18:42:19.516Z,4.30
2019-06-01T18:44:50.435Z,4.60
2019-06-01T18:47:31.842Z,4.80
2019-06-01T18:49:52.054Z,5.08
2019-06-01T18:52:22.025Z,4.35
2019-06-01T18:54:51.986Z,4.83
2019-06-01T18:57:21.983Z,4.37
2019-06-01T18:59:51.948Z,4.70
2019-06-01T19:02:21.906Z,5.03
2019-06-01T19:04:52.033Z,4.47
2019-06-01T19:07:21.838Z,4.40
2019-06-01T19:09:52.029Z,6.45
2019-06-01T19:12:24.418Z,4.92
2019-06-01T19:14:53.959Z,4.42
2019-06-01T19:17:23.877Z,5.35
2019-06-01T19:19:54.076Z,5.05
2019-06-01T19:22:23.901Z,4.70
2019-06-01T19:24:53.938Z,4.97
2019-06-01T19:27:23.884Z,4.70
2019-06-01T19:29:53.864Z,5.00
2019-06-01T19:32:23.907Z,4.65
2019-06-01T19:34:53.914Z,4.87
2019-06-01T19:37:24.340Z,4.90
2019-06-01T19:39:54.308Z,4.50
2019-06-01T19:42:24.297Z,5.85
2019-06-01T19:44:54.358Z,7.45
2019-06-01T19:47:25.498Z,6.17
2019-06-01T19:49:55.449Z,7.58
2019-06-01T19:52:25.423Z,9.75
2019-06-01T19:54:55.332Z,9.78
2019-06-01T19:57:25.394Z,14.10
2019-06-01T19:59:55.301Z,17.07
2019-06-01T20:02:33.729Z,14.87
2019-06-01T20:04:56.778Z,7.08
2019-06-01T20:07:28.309Z,7.12
2019-06-01T20:09:58.294Z,10.32
2019-06-01T20:12:28.180Z,12.10
2019-06-01T20:14:58.330Z,13.40
2019-06-01T20:17:28.593Z,12.50
2019-06-01T20:19:58.628Z,12.35
2019-06-01T20:22:28.877Z,12.82
2019-06-01T20:24:58.841Z,13.43
2019-06-01T20:27:28.871Z,10.30
2019-06-01T20:29:58.746Z,11.45
2019-06-01T20:32:28.558Z,12.00
2019-06-01T20:34:58.472Z,11.38
2019-06-01T20:37:28.343Z,12.23
2019-06-01T20:39:58.282Z,11.63
2019-06-01T20:42:32.288Z,11.35
2019-06-01T20:45:00.227Z,9.15
2019-06-01T20:47:30.081Z,9.58
2019-06-01T20:50:00.455Z,9.85
2019-06-01T20:52:30.344Z,9.40
2019-06-01T20:55:00.403Z,9.18
2019-06-01T20:57:30.396Z,8.75
2019-06-01T21:00:00.743Z,10.78
2019-06-01T21:02:32.383Z,10.32
2019-06-01T21:05:02.436Z,10.68
2019-06-01T21:07:32.589Z,9.90
2019-06-01T21:10:02.619Z,10.13
2019-06-01T21:12:44.933Z,9.70
2019-06-01T21:15:05.992Z,12.28
2019-06-01T21:17:37.369Z,9.70
2019-06-01T21:20:08.318Z,9.63
2019-06-01T21:22:38.524Z,10.32
2019-06-01T21:25:09.453Z,15.15
2019-06-01T21:27:39.419Z,15.55
2019-06-01T21:30:09.860Z,17.23
2019-06-01T21:32:39.968Z,15.25
2019-06-01T21:35:10.223Z,14.98
2019-06-01T21:37:41.200Z,18.02
2019-06-01T21:40:12.083Z,16.12
2019-06-01T21:42:57.927Z,16.23
2019-06-01T21:45:15.399Z,16.12
2019-06-01T21:47:45.708Z,14.58
2019-06-01T21:50:17.988Z,14.73
2019-06-01T21:52:48.229Z,14.53
2019-06-01T21:55:18.336Z,10.85
2019-06-01T21:57:48.315Z,9.90
2019-06-01T22:00:28.793Z,12.15
2019-06-01T22:03:00.401Z,11.43
2019-06-01T22:05:30.536Z,9.53
2019-06-01T22:08:00.702Z,8.98
2019-06-01T22:10:30.654Z,11.25
2019-06-01T22:13:17.226Z,10.60
2019-06-01T22:15:32.371Z,8.93
2019-06-01T22:18:02.252Z,9.58
2019-06-01T22:20:32.336Z,10.32
2019-06-01T22:23:02.265Z,10.70
2019-06-01T22:25:32.805Z,9.60
2019-06-01T22:28:03.010Z,11.90
2019-06-01T22:30:33.073Z,9.73
2019-06-01T22:33:02.966Z,11.68
2019-06-01T22:35:33.241Z,11.78
2019-06-01T22:38:03.164Z,10.30
2019-06-01T22:40:33.249Z,9.65
2019-06-01T22:43:03.138Z,12.10
2019-06-01T22:45:34.330Z,12.50
2019-06-01T22:48:04.316Z,11.53
2019-06-01T22:50:34.309Z,11.15
2019-06-01T22:53:04.269Z,11.08
2019-06-01T22:55:34.315Z,10.15
2019-06-01T22:58:04.588Z,10.55
2019-06-01T23:00:34.562Z,11.40
2019-06-01T23:03:04.652Z,11.25
2019-06-01T23:05:34.610Z,11.60
2019-06-01T23:08:04.718Z,12.30
2019-06-01T23:10:35.584Z,12.03
2019-06-01T23:13:05.694Z,11.65
2019-06-01T23:15:35.673Z,10.90
2019-06-01T23:18:05.753Z,10.72
2019-06-01T23:20:35.690Z,9.68
2019-06-01T23:23:05.723Z,13.00
2019-06-01T23:25:35.708Z,10.00
2019-06-01T23:28:05.982Z,13.30
2019-06-01T23:30:35.952Z,11.18
2019-06-01T23:33:05.929Z,16.35
2019-06-01T23:35:36.480Z,9.80
2019-06-01T23:38:06.455Z,11.40
2019-06-01T23:40:37.428Z,10.55
2019-06-01T23:43:07.306Z,11.03
2019-06-01T23:45:37.331Z,11.15
2019-06-01T23:48:07.338Z,10.50
2019-06-01T23:50:37.510Z,11.00
2019-06-01T23:53:13.548Z,13.65
2019-06-01T23:55:39.582Z,10.25
2019-06-01T23:58:10.681Z,10.72
